Time;durP1;ratioP1;P1;durP2;ratioP2;P2;SDS_P1;SDS_P2;PMS_P1;PMS_P2;Temp;Humidity;BMP_temperature;BMP_pressure;BME280_temperature;BME280_humidity;BME280_pressure;Samples;Min_cycle;Max_cycle;Signal;HPM_P1;HPM_P2
2023/08/02 00:02:10;;;;;;;3.30;2.30;;;15.20;99.90;;;;;;5071390;28;20871;-81
2023/08/02 00:04:36;;;;;;;3.57;2.57;;;15.10;99.90;;;;;;5055018;28;20302;-82
2023/08/02 00:07:03;;;;;;;5.20;2.47;;;15.10;99.90;;;;;;5072561;28;20232;-82
2023/08/02 00:09:30;;;;;;;5.27;2.53;;;15.00;99.90;;;;;;5071687;28;20229;-82
2023/08/02 00:11:57;;;;;;;5.80;2.43;;;15.00;99.90;;;;;;5053790;28;20230;-81
2023/08/02 00:14:25;;;;;;;3.87;2.70;;;14.90;99.90;;;;;;5053407;28;20318;-81
2023/08/02 00:16:52;;;;;;;3.43;2.70;;;14.90;99.90;;;;;;5053272;28;20870;-82
2023/08/02 00:19:19;;;;;;;3.77;2.53;;;14.90;99.90;;;;;;5071118;28;20234;-82
2023/08/02 00:21:46;;;;;;;3.63;2.77;;;14.80;99.90;;;;;;5053253;28;20232;-82
2023/08/02 00:24:13;;;;;;;4.20;2.93;;;14.80;99.90;;;;;;5070983;28;20235;-82
2023/08/02 00:26:39;;;;;;;3.97;2.90;;;14.90;99.90;;;;;;5074374;28;20721;-81
2023/08/02 00:29:06;;;;;;;4.83;2.70;;;14.80;99.90;;;;;;5054532;28;20249;-81
2023/08/02 00:31:35;;;;;;;3.80;2.70;;;14.80;99.90;;;;;;5108207;28;20253;-82
2023/08/02 00:34:02;;;;;;;7.30;3.10;;;14.80;99.90;;;;;;5113414;28;20278;-81
2023/08/02 00:36:29;;;;;;;5.67;3.00;;;14.80;99.90;;;;;;5112906;28;20227;-81
2023/08/02 00:38:57;;;;;;;4.53;2.83;;;14.70;99.90;;;;;;5094199;28;20740;-82
2023/08/02 00:41:23;;;;;;;5.87;2.93;;;14.70;99.90;;;;;;5092889;28;20268;-82
2023/08/02 00:43:50;;;;;;;4.47;3.10;;;14.70;99.90;;;;;;5112139;28;20316;-82
2023/08/02 00:46:19;;;;;;;5.67;3.00;;;14.70;99.90;;;;;;5111238;28;20307;-81
2023/08/02 00:48:48;;;;;;;3.37;2.70;;;14.70;99.90;;;;;;5112159;28;20225;-81
2023/08/02 00:51:16;;;;;;;5.67;3.00;;;14.70;99.90;;;;;;5112274;28;20806;-81
2023/08/02 00:53:43;;;;;;;3.40;2.73;;;14.70;99.90;;;;;;5093830;28;20220;-82
2023/08/02 00:56:11;;;;;;;9.90;3.13;;;14.70;99.90;;;;;;5110702;28;20881;-81
2023/08/02 00:58:37;;;;;;;7.97;3.07;;;14.70;99.90;;;;;;5093464;28;20225;-82
2023/08/02 01:01:07;;;;;;;4.17;3.23;;;14.70;99.90;;;;;;5108542;28;20235;-82
2023/08/02 01:03:35;;;;;;;5.87;3.20;;;14.70;99.90;;;;;;5108452;28;20229;-82
2023/08/02 01:06:10;;;;;;;4.00;3.13;;;14.70;99.90;;;;;;5110788;28;20319;-81
2023/08/02 01:08:41;;;;;;;3.77;2.80;;;14.70;99.90;;;;;;5093433;28;20231;-81
2023/08/02 01:11:15;;;;;;;4.83;3.63;;;14.70;99.90;;;;;;5092448;28;20229;-82
2023/08/02 01:13:49;;;;;;;5.57;3.17;;;14.70;99.90;;;;;;5110843;28;20737;-82
2023/08/02 01:16:17;;;;;;;5.00;3.27;;;14.70;99.90;;;;;;5092408;28;20228;-82
2023/08/02 01:18:44;;;;;;;6.10;3.17;;;14.60;99.90;;;;;;5110669;28;20816;-81
2023/08/02 01:21:12;;;;;;;6.07;3.60;;;14.60;99.90;;;;;;5110138;28;20271;-81
2023/08/02 01:23:39;;;;;;;5.33;3.43;;;14.60;99.90;;;;;;5090921;28;20634;-81
2023/08/02 01:26:06;;;;;;;5.30;3.60;;;14.60;99.90;;;;;;5109513;28;20986;-81
2023/08/02 01:28:38;;;;;;;4.87;3.37;;;14.60;99.90;;;;;;5091588;28;20682;-81
2023/08/02 01:31:05;;;;;;;4.80;3.60;;;14.60;99.90;;;;;;5092236;28;20229;-81
2023/08/02 01:33:36;;;;;;;4.33;3.63;;;14.60;99.90;;;;;;5092174;28;20781;-81
2023/08/02 01:36:05;;;;;;;4.33;3.63;;;14.50;99.90;;;;;;5111451;28;20222;-82
2023/08/02 01:38:33;;;;;;;3.90;3.57;;;14.50;99.90;;;;;;5092260;28;20321;-81
2023/08/02 01:41:00;;;;;;;5.83;3.33;;;14.50;99.90;;;;;;5093254;28;20256;-81
2023/08/02 01:43:27;;;;;;;4.50;3.57;;;14.50;99.90;;;;;;5093288;28;20225;-80
2023/08/02 01:45:53;;;;;;;5.63;3.63;;;14.50;99.90;;;;;;5112254;28;20225;-81
2023/08/02 01:48:22;;;;;;;6.33;3.90;;;14.50;99.90;;;;;;5093899;28;20903;-81
2023/08/02 01:50:49;;;;;;;5.47;4.00;;;14.60;99.90;;;;;;5092135;28;20248;-80
2023/08/02 01:53:15;;;;;;;6.53;4.33;;;14.50;99.90;;;;;;5109644;28;20320;-81
2023/08/02 01:55:44;;;;;;;6.30;4.60;;;14.50;99.90;;;;;;5092567;28;20300;-80
2023/08/02 01:58:10;;;;;;;6.03;4.57;;;14.50;99.90;;;;;;5092429;28;20320;-80
2023/08/02 02:00:37;;;;;;;6.27;4.37;;;14.50;99.90;;;;;;5092659;28;20284;-80
2023/08/02 02:03:04;;;;;;;6.63;4.23;;;14.50;99.90;;;;;;5092081;28;20630;-79
2023/08/02 02:05:31;;;;;;;5.77;4.60;;;14.60;99.90;;;;;;5092581;28;20223;-79
2023/08/02 02:07:57;;;;;;;6.13;4.60;;;14.50;99.90;;;;;;5100529;28;20224;-80
2023/08/02 02:10:24;;;;;;;10.37;4.43;;;14.50;99.90;;;;;;5071199;28;20235;-79
2023/08/02 02:12:52;;;;;;;7.53;4.50;;;14.50;99.90;;;;;;5070552;28;20225;-80
2023/08/02 02:15:19;;;;;;;7.03;5.00;;;14.50;99.90;;;;;;5071019;28;20232;-80
2023/08/02 02:17:46;;;;;;;6.97;4.70;;;14.50;99.90;;;;;;5070988;28;20299;-80
2023/08/02 02:20:13;;;;;;;5.83;4.37;;;14.50;99.90;;;;;;5070692;28;20225;-80
2023/08/02 02:22:40;;;;;;;5.83;4.50;;;14.50;99.90;;;;;;5072208;28;20233;-81
2023/08/02 02:25:07;;;;;;;6.50;4.40;;;14.50;99.90;;;;;;5072365;28;20931;-80
2023/08/02 02:27:34;;;;;;;5.43;4.53;;;14.50;99.90;;;;;;5090120;28;20282;-80
2023/08/02 02:30:02;;;;;;;5.27;4.30;;;14.50;99.90;;;;;;5089126;28;20277;-80
2023/08/02 02:32:29;;;;;;;5.03;3.93;;;14.50;99.90;;;;;;5090299;28;20243;-80
2023/08/02 02:34:56;;;;;;;5.33;4.23;;;14.50;99.90;;;;;;5071977;28;20229;-80
2023/08/02 02:37:22;;;;;;;8.60;4.83;;;14.50;99.90;;;;;;5070428;28;20227;-79
2023/08/02 02:39:51;;;;;;;5.33;4.40;;;14.50;99.90;;;;;;5070275;28;20236;-78
2023/08/02 02:42:18;;;;;;;4.53;3.93;;;14.50;99.90;;;;;;5067854;28;20227;-80
2023/08/02 02:44:45;;;;;;;8.30;4.10;;;14.50;99.90;;;;;;5068782;28;20226;-80
2023/08/02 02:47:13;;;;;;;8.07;4.17;;;14.50;99.90;;;;;;5069121;28;20688;-79
2023/08/02 02:49:40;;;;;;;5.77;4.20;;;14.50;99.90;;;;;;5056787;28;20328;-80
2023/08/02 02:52:09;;;;;;;4.70;3.63;;;14.50;99.90;;;;;;5062946;28;20227;-80
2023/08/02 02:54:37;;;;;;;6.90;4.37;;;14.50;99.90;;;;;;5070601;28;20719;-80
2023/08/02 02:57:04;;;;;;;5.03;3.77;;;14.50;99.90;;;;;;5070495;28;20310;-80
2023/08/02 02:59:30;;;;;;;4.03;3.53;;;14.50;99.90;;;;;;5088054;28;20232;-80
2023/08/02 03:01:57;;;;;;;5.60;3.90;;;14.50;99.90;;;;;;5088116;28;20315;-80
2023/08/02 03:04:25;;;;;;;4.70;4.27;;;14.50;99.90;;;;;;5069396;28;20229;-80
2023/08/02 03:06:52;;;;;;;4.57;3.70;;;14.50;99.90;;;;;;5069015;28;20218;-79
2023/08/02 03:09:19;;;;;;;4.20;3.73;;;14.50;99.90;;;;;;5086938;28;20233;-80
2023/08/02 03:11:46;;;;;;;4.60;3.70;;;14.50;99.90;;;;;;5086475;28;20225;-80
2023/08/02 03:14:13;;;;;;;6.53;3.57;;;14.50;99.90;;;;;;5088536;28;20603;-81
2023/08/02 03:16:42;;;;;;;4.07;3.60;;;14.40;99.90;;;;;;5088215;28;20234;-79
2023/08/02 03:19:09;;;;;;;5.30;3.77;;;14.40;99.90;;;;;;5088404;28;20701;-80
2023/08/02 03:21:38;;;;;;;5.40;3.57;;;14.40;99.90;;;;;;5062509;28;20276;-80
2023/08/02 03:24:05;;;;;;;4.17;3.77;;;14.40;99.90;;;;;;5067907;28;20734;-80
2023/08/02 03:26:32;;;;;;;4.53;3.43;;;14.40;99.90;;;;;;5050917;28;20226;-81
2023/08/02 03:28:59;;;;;;;4.30;3.90;;;14.40;99.90;;;;;;5055228;28;20667;-80
2023/08/02 03:31:26;;;;;;;4.60;3.53;;;14.30;99.90;;;;;;5079827;28;20216;-81
2023/08/02 03:33:53;;;;;;;5.70;3.83;;;14.30;99.90;;;;;;5086976;28;20221;-81
2023/08/02 03:36:20;;;;;;;4.63;3.60;;;14.30;99.90;;;;;;5088659;28;20237;-81
2023/08/02 03:38:49;;;;;;;4.70;3.93;;;14.30;99.90;;;;;;5071063;28;20224;-81
2023/08/02 03:41:16;;;;;;;7.60;3.70;;;14.30;99.90;;;;;;5089551;28;20234;-80
2023/08/02 03:43:43;;;;;;;4.90;4.10;;;14.30;99.90;;;;;;5070789;28;20219;-80
2023/08/02 03:46:11;;;;;;;4.77;3.90;;;14.30;99.90;;;;;;5070398;28;20319;-80
2023/08/02 03:48:38;;;;;;;5.50;4.10;;;14.30;99.90;;;;;;5054159;28;20229;-79
2023/08/02 03:51:05;;;;;;;4.53;4.10;;;14.30;99.90;;;;;;5067453;28;20321;-80
2023/08/02 03:53:32;;;;;;;4.13;3.73;;;14.30;99.90;;;;;;5068495;28;20225;-80
2023/08/02 03:56:00;;;;;;;4.37;3.87;;;14.40;99.90;;;;;;5049668;28;20226;-80
2023/08/02 03:58:27;;;;;;;4.37;3.93;;;14.40;99.90;;;;;;5067755;28;20235;-80
2023/08/02 04:00:54;;;;;;;5.87;4.10;;;14.40;99.90;;;;;;5067889;28;20312;-80
2023/08/02 04:03:21;;;;;;;4.50;4.03;;;14.40;99.90;;;;;;5066503;28;20288;-81
2023/08/02 04:05:48;;;;;;;4.30;3.90;;;14.40;99.90;;;;;;5067800;28;20644;-81
2023/08/02 04:08:14;;;;;;;4.60;4.17;;;14.40;99.90;;;;;;5067905;28;20327;-81
2023/08/02 04:10:41;;;;;;;6.47;4.33;;;14.40;99.90;;;;;;5050477;28;20245;-81
2023/08/02 04:13:09;;;;;;;4.60;4.00;;;14.40;99.90;;;;;;5052194;28;20230;-80
2023/08/02 04:15:36;;;;;;;4.83;3.87;;;14.40;99.90;;;;;;5085124;28;20225;-80
2023/08/02 04:18:03;;;;;;;5.30;4.80;;;14.40;99.90;;;;;;5067317;28;20323;-80
2023/08/02 04:20:30;;;;;;;4.60;4.20;;;14.50;99.90;;;;;;5066145;28;20705;-83
2023/08/02 04:22:57;;;;;;;6.93;4.77;;;14.40;99.90;;;;;;5069126;28;20222;-80
2023/08/02 04:25:23;;;;;;;7.37;5.30;;;14.40;99.90;;;;;;5106930;28;20232;-79
2023/08/02 04:27:50;;;;;;;5.20;4.70;;;14.40;99.90;;;;;;5106200;28;20667;-80
2023/08/02 04:30:18;;;;;;;7.23;5.03;;;14.40;99.90;;;;;;5106312;28;20229;-79
2023/08/02 04:32:45;;;;;;;5.77;5.17;;;14.50;99.90;;;;;;5107511;28;20616;-79
2023/08/02 04:35:12;;;;;;;68.20;9.93;;;14.40;99.90;;;;;;5106777;28;20300;-78
2023/08/02 04:37:38;;;;;;;70.17;10.57;;;14.40;99.90;;;;;;5112481;28;20221;-80
2023/08/02 04:40:06;;;;;;;10.37;6.00;;;14.50;99.90;;;;;;5099803;28;20238;-80
2023/08/02 04:42:33;;;;;;;40.13;8.93;;;14.50;99.90;;;;;;5095221;28;20303;-78
2023/08/02 04:44:59;;;;;;;18.00;7.60;;;14.50;99.90;;;;;;5088239;28;20222;-79
2023/08/02 04:47:27;;;;;;;13.70;7.43;;;14.50;99.90;;;;;;5092202;28;20842;-80
2023/08/02 04:49:57;;;;;;;7.57;6.70;;;14.50;99.90;;;;;;5089449;28;20222;-80
2023/08/02 04:52:24;;;;;;;9.83;7.50;;;14.50;99.90;;;;;;5087746;28;20739;-80
2023/08/02 04:54:50;;;;;;;11.37;7.07;;;14.50;99.90;;;;;;5067915;28;20225;-80
2023/08/02 04:57:17;;;;;;;23.47;8.17;;;14.50;99.90;;;;;;5067744;28;20225;-80
2023/08/02 04:59:44;;;;;;;13.80;8.00;;;14.50;99.90;;;;;;5086145;28;20813;-80
2023/08/02 05:02:10;;;;;;;10.60;7.20;;;14.60;99.90;;;;;;5083737;28;20221;-80
2023/08/02 05:04:38;;;;;;;9.23;7.70;;;14.60;99.90;;;;;;5077943;28;20221;-79
2023/08/02 05:07:05;;;;;;;9.13;7.60;;;14.60;99.90;;;;;;5083580;28;20302;-79
2023/08/02 05:09:32;;;;;;;8.03;7.23;;;14.60;99.90;;;;;;5066060;28;20230;-79
2023/08/02 05:11:59;;;;;;;8.33;7.00;;;14.60;99.90;;;;;;5091261;28;20237;-78
2023/08/02 05:14:28;;;;;;;9.63;7.97;;;14.70;99.90;;;;;;5089257;28;20878;-79
2023/08/02 05:16:55;;;;;;;9.20;8.17;;;14.70;99.90;;;;;;5084752;28;20618;-79
2023/08/02 05:19:22;;;;;;;12.80;7.70;;;14.70;99.90;;;;;;5066609;28;20231;-80
2023/08/02 05:21:51;;;;;;;11.13;8.47;;;14.70;99.90;;;;;;5065287;28;20218;-80
2023/08/02 05:24:17;;;;;;;10.57;8.77;;;14.80;99.90;;;;;;5074069;28;20239;-80
2023/08/02 05:26:44;;;;;;;9.80;8.70;;;14.80;99.90;;;;;;5081902;28;20219;-80
2023/08/02 05:29:11;;;;;;;9.73;8.43;;;14.90;99.90;;;;;;5087934;28;20942;-78
2023/08/02 05:31:38;;;;;;;10.33;9.33;;;14.90;99.90;;;;;;5072126;28;20233;-77
2023/08/02 05:34:05;;;;;;;9.37;8.40;;;15.00;99.90;;;;;;5084807;28;20234;-79
2023/08/02 05:36:32;;;;;;;10.37;9.37;;;15.00;99.90;;;;;;5072603;28;20231;-78
2023/08/02 05:39:00;;;;;;;10.90;9.13;;;15.10;99.90;;;;;;5093376;28;20228;-79
2023/08/02 05:41:27;;;;;;;9.60;8.10;;;15.20;99.90;;;;;;5092494;28;21135;-78
2023/08/02 05:43:54;;;;;;;9.43;7.37;;;15.20;99.90;;;;;;5094048;28;20226;-78
2023/08/02 05:46:20;;;;;;;9.47;8.00;;;15.30;99.90;;;;;;5094875;28;20900;-78
2023/08/02 05:48:49;;;;;;;11.53;8.43;;;15.30;99.90;;;;;;5093099;28;20250;-78
2023/08/02 05:51:16;;;;;;;9.80;7.50;;;15.40;99.90;;;;;;5092500;28;20228;-79
2023/08/02 05:53:42;;;;;;;10.23;8.70;;;15.50;99.90;;;;;;5074505;28;20225;-79
2023/08/02 05:56:10;;;;;;;10.37;8.13;;;15.60;99.90;;;;;;5092848;28;20234;-79
2023/08/02 05:58:37;;;;;;;10.57;7.37;;;15.70;99.90;;;;;;5074624;28;20235;-78
2023/08/02 06:01:04;;;;;;;7.93;6.47;;;15.80;99.90;;;;;;5088015;28;20244;-79
2023/08/02 06:03:30;;;;;;;11.93;7.40;;;15.80;99.90;;;;;;5086939;28;20231;-79
2023/08/02 06:05:57;;;;;;;7.53;6.00;;;15.80;99.90;;;;;;5097139;28;20233;-78
2023/08/02 06:08:24;;;;;;;10.37;6.90;;;15.90;99.90;;;;;;5095575;28;20324;-79
2023/08/02 06:10:50;;;;;;;9.03;6.23;;;15.90;99.90;;;;;;5097148;28;20591;-78
2023/08/02 06:13:18;;;;;;;9.07;6.47;;;15.90;99.90;;;;;;5095173;28;20223;-79
2023/08/02 06:15:45;;;;;;;8.93;6.20;;;16.00;99.90;;;;;;5078324;28;20279;-79
2023/08/02 06:18:11;;;;;;;12.83;6.40;;;16.00;99.90;;;;;;5076992;28;20227;-79
2023/08/02 06:20:38;;;;;;;10.17;6.60;;;15.90;99.90;;;;;;5096974;28;20592;-79
2023/08/02 06:23:05;;;;;;;9.13;6.10;;;15.90;99.90;;;;;;5094971;28;20236;-79
2023/08/02 06:25:32;;;;;;;6.33;5.73;;;15.90;99.90;;;;;;5078626;28;20226;-79
2023/08/02 06:27:58;;;;;;;7.57;6.30;;;15.90;99.90;;;;;;5096489;28;20229;-79
2023/08/02 06:30:26;;;;;;;8.37;5.67;;;15.90;99.90;;;;;;5094579;28;20219;-79
2023/08/02 06:32:53;;;;;;;11.53;6.83;;;15.80;99.90;;;;;;5095926;28;20225;-79
2023/08/02 06:35:20;;;;;;;10.10;6.93;;;15.90;99.90;;;;;;5096585;28;20589;-80
2023/08/02 06:37:46;;;;;;;9.60;6.53;;;15.90;99.90;;;;;;5095419;28;20700;-78
2023/08/02 06:40:13;;;;;;;7.20;6.10;;;16.00;99.90;;;;;;5094400;28;20889;-80
2023/08/02 06:42:40;;;;;;;14.30;6.47;;;16.00;99.90;;;;;;5096161;28;20280;-79
2023/08/02 06:45:08;;;;;;;8.77;5.97;;;16.10;99.90;;;;;;5096256;28;20240;-79
2023/08/02 06:47:36;;;;;;;9.23;6.30;;;16.10;99.90;;;;;;5078071;28;20717;-79
2023/08/02 06:50:02;;;;;;;9.03;6.73;;;16.20;99.90;;;;;;5096124;28;20774;-80
2023/08/02 06:52:30;;;;;;;6.63;5.70;;;16.20;99.90;;;;;;5095894;28;20225;-80
2023/08/02 06:54:56;;;;;;;6.23;5.63;;;16.30;99.90;;;;;;5096294;28;20230;-80
2023/08/02 06:57:24;;;;;;;7.80;5.27;;;16.40;99.90;;;;;;5095637;28;20225;-80
2023/08/02 06:59:51;;;;;;;6.70;5.30;;;16.50;99.90;;;;;;5094117;28;20298;-79
2023/08/02 07:02:18;;;;;;;6.33;4.60;;;16.60;99.90;;;;;;5095443;28;20227;-79
2023/08/02 07:04:45;;;;;;;7.00;5.17;;;16.70;99.90;;;;;;5096265;28;20304;-80
2023/08/02 07:07:12;;;;;;;6.60;4.43;;;16.80;99.90;;;;;;5093873;28;20719;-79
2023/08/02 07:09:39;;;;;;;8.13;4.47;;;16.80;99.90;;;;;;5076973;28;20229;-79
2023/08/02 07:12:06;;;;;;;6.33;4.40;;;16.90;99.90;;;;;;5096074;28;20232;-80
2023/08/02 07:14:33;;;;;;;8.00;4.50;;;17.00;99.90;;;;;;5094963;28;20252;-78
2023/08/02 07:16:59;;;;;;;8.33;4.87;;;17.10;99.90;;;;;;5094782;28;20215;-80
2023/08/02 07:19:26;;;;;;;7.60;4.00;;;17.20;99.90;;;;;;5093076;28;20234;-80
2023/08/02 07:21:54;;;;;;;9.27;4.27;;;17.40;99.90;;;;;;5096418;28;20230;-80
2023/08/02 07:24:21;;;;;;;7.53;4.00;;;17.50;99.90;;;;;;5095217;28;20225;-80
2023/08/02 07:26:47;;;;;;;6.83;3.60;;;17.60;99.90;;;;;;5093645;28;20223;-79
2023/08/02 07:29:14;;;;;;;8.50;3.77;;;17.70;99.90;;;;;;5076540;28;20258;-80
2023/08/02 07:31:41;;;;;;;6.00;3.40;;;17.70;99.90;;;;;;5093770;28;20309;-80
2023/08/02 07:34:07;;;;;;;8.37;3.47;;;17.70;99.90;;;;;;5093457;28;20222;-80
2023/08/02 07:36:34;;;;;;;6.83;3.60;;;17.70;99.90;;;;;;5095075;28;20241;-80
2023/08/02 07:39:02;;;;;;;8.00;3.20;;;17.60;99.90;;;;;;5094950;28;20231;-80
2023/08/02 07:41:29;;;;;;;8.57;3.50;;;17.60;99.90;;;;;;5076165;28;20229;-79
2023/08/02 07:43:55;;;;;;;7.43;3.70;;;17.60;99.90;;;;;;5095999;28;20226;-80
2023/08/02 07:46:23;;;;;;;7.33;3.23;;;17.70;99.90;;;;;;5094268;28;20248;-80
2023/08/02 07:48:51;;;;;;;8.73;2.90;;;17.80;99.90;;;;;;5094710;28;20230;-80
2023/08/02 07:51:18;;;;;;;5.03;3.17;;;18.00;99.90;;;;;;5094798;28;20230;-80
2023/08/02 07:53:45;;;;;;;7.63;2.80;;;18.20;99.90;;;;;;5094834;28;20295;-80
2023/08/02 07:56:13;;;;;;;8.27;3.23;;;18.30;99.90;;;;;;5076552;28;20255;-80
2023/08/02 07:58:39;;;;;;;8.10;2.43;;;18.40;99.90;;;;;;5075593;28;20600;-80
2023/08/02 08:01:07;;;;;;;5.37;2.50;;;18.50;99.90;;;;;;5094783;28;20325;-79
2023/08/02 08:03:34;;;;;;;6.57;3.20;;;18.70;99.90;;;;;;5094160;28;20222;-80
2023/08/02 08:06:00;;;;;;;9.13;3.37;;;18.80;99.90;;;;;;5095615;28;20228;-80
2023/08/02 08:08:27;;;;;;;11.20;3.03;;;19.00;99.90;;;;;;5094439;28;20229;-80
2023/08/02 08:10:54;;;;;;;10.13;2.53;;;19.10;99.90;;;;;;5097096;28;20595;-79
2023/08/02 08:13:22;;;;;;;6.57;3.28;;;19.20;99.90;;;;;;5079822;28;20229;-79
2023/08/02 08:15:49;;;;;;;8.23;3.20;;;19.20;99.90;;;;;;5064318;28;20233;-80
2023/08/02 08:18:16;;;;;;;6.83;2.70;;;19.20;99.90;;;;;;5097426;28;20306;-80
2023/08/02 08:20:42;;;;;;;7.40;3.23;;;19.20;99.90;;;;;;5083484;28;20321;-80
2023/08/02 08:23:09;;;;;;;7.70;3.10;;;19.30;99.90;;;;;;5078009;28;20298;-80
2023/08/02 08:25:36;;;;;;;7.60;2.97;;;19.50;99.90;;;;;;5079054;28;20229;-79
2023/08/02 08:28:02;;;;;;;7.05;2.65;;;19.60;99.90;;;;;;5080268;28;20224;-79
2023/08/02 08:30:30;;;;;;;4.85;2.70;;;20.00;99.90;;;;;;5086172;28;20318;-80
2023/08/02 08:32:57;;;;;;;6.55;2.80;;;20.30;99.90;;;;;;5086920;28;20223;-79
2023/08/02 08:35:24;;;;;;;8.00;2.67;;;20.70;99.90;;;;;;5098414;28;20231;-80
2023/08/02 08:37:52;;;;;;;5.07;2.58;;;21.00;99.90;;;;;;5098796;28;20226;-80
2023/08/02 08:40:20;;;;;;;5.88;2.42;;;21.20;99.90;;;;;;5096784;28;20223;-79
2023/08/02 08:42:51;;;;;;;5.43;2.30;;;21.50;99.90;;;;;;5080252;28;20223;-80
2023/08/02 08:45:22;;;;;;;8.15;2.40;;;21.90;99.90;;;;;;5087624;28;20224;-79
2023/08/02 08:47:51;;;;;;;6.55;2.13;;;22.40;99.90;;;;;;5102531;28;20226;-80
2023/08/02 08:50:21;;;;;;;7.35;2.65;;;22.80;99.90;;;;;;5087201;28;20234;-80
2023/08/02 08:52:50;;;;;;;4.90;2.25;;;23.10;99.90;;;;;;5059801;28;20233;-79
2023/08/02 08:55:18;;;;;;;7.70;2.28;;;23.50;99.90;;;;;;5078320;28;20223;-80
2023/08/02 08:57:46;;;;;;;7.53;2.33;;;23.50;99.90;;;;;;5059593;28;20690;-80
2023/08/02 09:00:13;;;;;;;5.82;2.30;;;23.60;99.90;;;;;;5085236;28;20239;-80
2023/08/02 09:02:42;;;;;;;5.07;2.35;;;23.70;99.90;;;;;;5062321;28;20223;-80
2023/08/02 09:05:11;;;;;;;4.03;1.92;;;23.70;99.90;;;;;;5096426;28;20215;-80
2023/08/02 09:07:37;;;;;;;3.83;2.10;;;23.60;99.90;;;;;;5098581;28;20219;-80
2023/08/02 09:10:05;;;;;;;5.28;2.10;;;23.60;99.90;;;;;;5096836;28;20231;-80
2023/08/02 09:12:43;;;;;;;5.88;2.25;;;23.50;99.90;;;;;;5106563;28;20218;-80
2023/08/02 09:15:10;;;;;;;6.57;2.15;;;23.40;99.90;;;;;;5116526;28;20228;-80
2023/08/02 09:17:47;;;;;;;6.35;1.95;;;23.20;99.90;;;;;;5109517;28;20236;-80
2023/08/02 09:20:16;;;;;;;6.43;2.13;;;23.00;99.90;;;;;;5081171;28;20234;-79
2023/08/02 09:22:43;;;;;;;6.55;2.13;;;23.00;99.90;;;;;;5099161;28;20752;-80
2023/08/02 09:25:21;;;;;;;5.53;2.53;;;22.90;99.90;;;;;;5116071;28;20218;-79
2023/08/02 09:27:48;;;;;;;4.60;1.80;;;23.00;99.90;;;;;;5066993;28;20222;-79
2023/08/02 09:30:23;;;;;;;3.92;1.98;;;23.00;99.90;;;;;;5072019;28;20293;-80
2023/08/02 09:33:00;;;;;;;6.40;2.47;;;23.00;99.90;;;;;;5098677;28;20359;-80
2023/08/02 09:35:31;;;;;;;6.40;2.05;;;22.80;99.90;;;;;;5075030;28;20811;-80
2023/08/02 09:37:58;;;;;;;5.00;2.25;;;22.80;99.90;;;;;;5093538;28;20647;-80
2023/08/02 09:40:35;;;;;;;5.57;2.20;;;22.70;99.90;;;;;;5108115;28;20570;-80
2023/08/02 09:43:03;;;;;;;6.07;2.40;;;22.50;99.90;;;;;;5068552;28;20284;-79
2023/08/02 09:45:34;;;;;;;6.13;2.20;;;22.30;99.90;;;;;;5076483;28;20227;-80
2023/08/02 09:48:01;;;;;;;5.45;2.47;;;22.10;99.90;;;;;;5080349;28;20227;-80
2023/08/02 09:50:30;;;;;;;4.47;2.00;;;22.00;99.90;;;;;;5093082;28;20771;-80
2023/08/02 09:52:56;;;;;;;5.05;2.10;;;21.90;99.90;;;;;;5108956;28;20223;-79
2023/08/02 09:55:23;;;;;;;6.82;2.30;;;21.80;99.90;;;;;;5102499;28;20235;-80
2023/08/02 09:57:50;;;;;;;6.13;2.50;;;21.80;99.90;;;;;;5093702;28;20717;-80
2023/08/02 10:00:18;;;;;;;5.13;2.30;;;21.60;99.90;;;;;;5082085;28;20259;-80
2023/08/02 10:02:46;;;;;;;4.43;1.90;;;21.50;99.90;;;;;;5103455;28;20231;-80
2023/08/02 10:05:14;;;;;;;6.65;2.63;;;21.40;99.90;;;;;;5094809;28;20263;-80
2023/08/02 10:07:46;;;;;;;4.03;2.05;;;21.30;99.90;;;;;;5110550;28;20226;-80
2023/08/02 10:10:17;;;;;;;5.05;2.72;;;21.20;99.90;;;;;;5085631;28;20238;-80
2023/08/02 10:12:49;;;;;;;5.82;2.65;;;21.10;99.90;;;;;;5057810;28;20227;-80
2023/08/02 10:15:16;;;;;;;6.68;2.53;;;21.00;99.90;;;;;;5085289;28;20608;-79
2023/08/02 10:17:43;;;;;;;3.90;2.30;;;20.90;99.90;;;;;;5096412;28;20225;-80
2023/08/02 10:20:12;;;;;;;5.88;2.75;;;20.90;99.90;;;;;;5068968;28;20766;-79
2023/08/02 10:22:41;;;;;;;4.88;2.20;;;20.80;99.90;;;;;;5063623;28;20591;-80
2023/08/02 10:25:09;;;;;;;6.15;2.60;;;20.80;99.90;;;;;;5088489;28;20222;-80
2023/08/02 10:27:36;;;;;;;5.78;2.60;;;20.70;99.90;;;;;;5075683;28;20224;-80
2023/08/02 10:30:05;;;;;;;6.43;2.45;;;20.70;99.90;;;;;;5102542;28;20238;-80
2023/08/02 10:32:31;;;;;;;4.18;2.20;;;20.60;99.90;;;;;;5083157;28;20227;-79
2023/08/02 10:34:59;;;;;;;5.18;2.40;;;20.50;99.90;;;;;;5091529;28;20227;-80
2023/08/02 10:37:54;;;;;;;5.05;3.00;;;20.40;99.90;;;;;;5087742;28;20225;-80
2023/08/02 10:40:22;;;;;;;8.27;2.88;;;20.40;99.90;;;;;;5076278;28;20648;-79
2023/08/02 10:43:05;;;;;;;7.87;2.70;;;20.40;99.90;;;;;;5091554;28;20245;-78
2023/08/02 10:45:32;;;;;;;6.07;2.57;;;20.30;99.90;;;;;;5062588;28;20286;-80
2023/08/02 10:48:23;;;;;;;5.13;2.90;;;20.30;99.90;;;;;;5084421;28;20223;-80
2023/08/02 10:50:50;;;;;;;5.50;2.53;;;20.20;99.90;;;;;;5080719;28;20219;-78
2023/08/02 10:53:18;;;;;;;7.43;2.77;;;20.20;99.90;;;;;;5083205;28;20237;-79
2023/08/02 10:56:06;;;;;;;4.93;2.50;;;20.10;99.90;;;;;;5067189;28;20230;-80
2023/08/02 10:58:49;;;;;;;6.00;2.80;;;20.10;99.90;;;;;;5081967;28;20232;-80
2023/08/02 11:01:16;;;;;;;5.30;2.65;;;20.10;99.90;;;;;;5079938;28;20697;-80
2023/08/02 11:03:44;;;;;;;8.03;2.77;;;20.10;99.90;;;;;;5082277;28;20237;-80
2023/08/02 11:06:24;;;;;;;4.47;2.60;;;20.00;99.90;;;;;;5065711;28;20929;-80
2023/08/02 11:08:52;;;;;;;5.33;2.63;;;20.00;99.90;;;;;;5083987;28;20230;-79
2023/08/02 11:11:32;;;;;;;5.75;2.55;;;20.00;99.90;;;;;;5068558;28;20602;-79
2023/08/02 11:13:58;;;;;;;5.53;2.40;;;20.00;99.90;;;;;;5067873;28;20230;-79
2023/08/02 11:16:25;;;;;;;4.60;2.72;;;20.00;99.90;;;;;;5063950;28;20230;-80
2023/08/02 11:18:53;;;;;;;4.27;2.40;;;20.00;99.90;;;;;;5069557;28;20219;-80
2023/08/02 11:21:20;;;;;;;9.30;2.87;;;20.00;99.90;;;;;;5061666;28;20227;-80
2023/08/02 11:23:49;;;;;;;5.20;2.63;;;20.00;99.90;;;;;;5067349;28;20576;-78
2023/08/02 11:26:19;;;;;;;4.90;2.20;;;19.90;99.90;;;;;;5086792;28;20218;-80
2023/08/02 11:28:47;;;;;;;4.03;2.37;;;20.00;99.90;;;;;;5083015;28;20226;-79
2023/08/02 11:31:15;;;;;;;6.30;2.73;;;20.00;99.90;;;;;;5066531;28;20288;-80
2023/08/02 11:33:42;;;;;;;6.53;2.50;;;19.90;99.90;;;;;;5062093;28;20225;-79
2023/08/02 11:36:09;;;;;;;4.70;2.28;;;19.80;99.90;;;;;;5066087;28;20238;-80
2023/08/02 11:38:36;;;;;;;4.43;2.10;;;19.80;99.90;;;;;;5084958;28;20254;-80
2023/08/02 11:41:14;;;;;;;4.47;2.30;;;19.80;99.90;;;;;;5084480;28;20684;-79
2023/08/02 11:43:42;;;;;;;5.43;2.53;;;19.80;99.90;;;;;;5082852;28;20654;-80
2023/08/02 11:46:17;;;;;;;4.13;2.17;;;19.80;99.90;;;;;;5086819;28;20271;-80
2023/08/02 11:48:43;;;;;;;3.80;2.33;;;19.70;99.90;;;;;;5082974;28;20241;-80
2023/08/02 11:51:12;;;;;;;5.33;2.57;;;19.70;99.90;;;;;;5082161;28;20240;-78
2023/08/02 11:53:51;;;;;;;4.40;2.00;;;19.70;99.90;;;;;;5085814;28;20226;-79
2023/08/02 11:56:20;;;;;;;3.97;2.17;;;19.70;99.90;;;;;;5085915;28;20227;-79
2023/08/02 11:58:48;;;;;;;4.17;2.23;;;19.70;99.90;;;;;;5074469;28;20223;-79
2023/08/02 12:01:15;;;;;;;6.97;2.20;;;19.60;99.90;;;;;;5074479;28;20328;-80
2023/08/02 12:03:53;;;;;;;4.40;2.33;;;19.60;99.90;;;;;;5070831;28;20230;-80
2023/08/02 12:06:20;;;;;;;5.33;2.13;;;19.60;99.90;;;;;;5067295;28;20234;-80
2023/08/02 12:08:54;;;;;;;4.77;2.13;;;19.60;99.90;;;;;;5071729;28;20584;-80
2023/08/02 12:11:22;;;;;;;4.00;2.00;;;19.50;99.90;;;;;;5071278;28;20236;-79
2023/08/02 12:13:50;;;;;;;4.87;2.13;;;19.40;99.90;;;;;;5087036;28;20759;-80
2023/08/02 12:16:17;;;;;;;3.97;2.33;;;19.30;99.90;;;;;;5071339;28;20223;-80
2023/08/02 12:18:55;;;;;;;4.53;2.33;;;19.20;99.90;;;;;;5065830;28;20233;-80
2023/08/02 12:21:23;;;;;;;4.27;2.10;;;18.90;99.90;;;;;;5080338;28;20373;-80
2023/08/02 12:23:50;;;;;;;4.50;2.40;;;18.60;99.90;;;;;;5072565;28;20239;-80
2023/08/02 12:26:31;;;;;;;3.57;2.10;;;18.40;99.90;;;;;;5086844;28;20228;-79
2023/08/02 12:29:00;;;;;;;4.67;2.33;;;18.10;99.90;;;;;;5069697;28;20259;-80
2023/08/02 12:31:27;;;;;;;3.50;2.33;;;18.00;99.90;;;;;;5078813;28;20225;-80
2023/08/02 12:33:54;;;;;;;5.13;2.27;;;17.80;99.90;;;;;;5087063;28;20226;-79
2023/08/02 12:36:27;;;;;;;6.77;2.90;;;17.70;99.90;;;;;;5086309;28;20229;-79
2023/08/02 12:38:55;;;;;;;5.70;2.47;;;17.70;99.90;;;;;;5065893;28;20244;-79
2023/08/02 12:41:21;;;;;;;4.47;2.33;;;17.80;99.90;;;;;;5087520;28;20240;-80
2023/08/02 12:43:48;;;;;;;4.50;2.50;;;17.90;99.90;;;;;;5089346;28;20229;-79
2023/08/02 12:46:17;;;;;;;3.20;1.97;;;18.10;99.90;;;;;;5078730;28;20240;-80
2023/08/02 12:48:44;;;;;;;4.13;2.23;;;18.50;99.90;;;;;;5086555;28;20249;-80
2023/08/02 12:51:11;;;;;;;3.80;2.23;;;18.70;99.90;;;;;;5081303;28;20229;-80